Time;durP1;ratioP1;P1;durP2;ratioP2;P2;SDS_P1;SDS_P2;PMS_P1;PMS_P2;Temp;Humidity;BMP_temperature;BMP_pressure;BME280_temperature;BME280_humidity;BME280_pressure;Samples;Min_cycle;Max_cycle;Signal;HPM_P1;HPM_P2
2023/10/29 00:01:06;;;;;;;1.80;0.90;;;13.30;91.90;;;;;;5029760;28;20502;-46
2023/10/29 00:03:36;;;;;;;2.50;0.70;;;13.20;91.90;;;;;;5027394;28;20489;-46
2023/10/29 00:06:04;;;;;;;1.50;0.70;;;13.30;91.90;;;;;;5027977;28;20448;-46
2023/10/29 00:08:32;;;;;;;1.33;0.60;;;13.20;91.80;;;;;;5026452;28;21073;-46
2023/10/29 00:11:00;;;;;;;2.40;0.87;;;13.30;91.80;;;;;;5029475;28;20444;-46
2023/10/29 00:13:28;;;;;;;2.30;1.00;;;13.20;91.80;;;;;;5028640;28;20504;-45
2023/10/29 00:15:56;;;;;;;1.37;0.70;;;13.20;91.80;;;;;;5028757;28;20970;-45
2023/10/29 00:18:24;;;;;;;1.13;0.80;;;13.30;91.80;;;;;;5026805;28;20475;-46
2023/10/29 00:20:54;;;;;;;1.90;1.20;;;13.20;91.80;;;;;;5029007;28;20444;-47
2023/10/29 00:23:22;;;;;;;1.57;0.80;;;13.20;91.80;;;;;;5026789;28;20473;-46
2023/10/29 00:25:50;;;;;;;2.57;0.83;;;13.30;92.00;;;;;;5029382;28;20451;-46
2023/10/29 00:28:18;;;;;;;1.90;0.80;;;13.30;91.90;;;;;;5027310;28;20884;-47
2023/10/29 00:30:46;;;;;;;2.07;0.70;;;13.20;91.80;;;;;;5007451;28;20967;-47
2023/10/29 00:33:14;;;;;;;2.57;1.00;;;13.20;91.80;;;;;;5014058;28;20470;-47
2023/10/29 00:35:42;;;;;;;2.07;0.90;;;13.30;91.80;;;;;;5029295;28;20455;-47
2023/10/29 00:38:12;;;;;;;1.60;0.60;;;13.30;91.80;;;;;;5027157;28;20477;-46
2023/10/29 00:40:40;;;;;;;1.40;0.70;;;13.30;91.90;;;;;;5028913;28;20797;-47
2023/10/29 00:43:12;;;;;;;3.90;0.90;;;13.30;91.80;;;;;;5009943;28;20466;-46
2023/10/29 00:45:41;;;;;;;1.57;0.80;;;13.30;91.90;;;;;;5010176;28;20522;-46
2023/10/29 00:48:10;;;;;;;1.27;0.60;;;13.30;91.80;;;;;;5027418;28;20510;-46
2023/10/29 00:50:39;;;;;;;1.90;0.80;;;13.30;91.80;;;;;;5028105;28;20948;-45
2023/10/29 00:53:07;;;;;;;2.20;0.90;;;13.30;92.10;;;;;;5025589;28;21030;-46
2023/10/29 00:55:39;;;;;;;1.77;1.10;;;13.30;92.20;;;;;;5026450;28;20465;-46
2023/10/29 00:58:08;;;;;;;2.50;0.97;;;13.30;92.10;;;;;;5027615;28;20528;-46
2023/10/29 01:00:36;;;;;;;2.60;0.80;;;13.30;92.30;;;;;;5010520;28;20432;-46
2023/10/29 01:03:04;;;;;;;2.10;0.93;;;13.30;92.00;;;;;;5008445;28;20495;-46
2023/10/29 01:05:32;;;;;;;1.70;1.00;;;13.30;92.00;;;;;;5028603;28;21051;-46
2023/10/29 01:08:01;;;;;;;1.60;0.70;;;13.30;91.90;;;;;;5025384;28;20469;-45
2023/10/29 01:10:29;;;;;;;2.03;0.70;;;13.30;91.90;;;;;;5028103;28;20450;-45
2023/10/29 01:12:59;;;;;;;1.70;0.60;;;13.30;91.90;;;;;;5027422;28;20551;-46
2023/10/29 01:15:27;;;;;;;1.20;0.67;;;13.30;91.80;;;;;;5026307;28;20462;-45
2023/10/29 01:17:55;;;;;;;1.53;0.70;;;13.30;91.90;;;;;;5007794;28;20501;-45
2023/10/29 01:20:23;;;;;;;2.10;0.90;;;13.30;91.80;;;;;;5027622;28;20433;-47
2023/10/29 01:22:51;;;;;;;1.77;1.07;;;13.30;92.00;;;;;;5025014;28;20485;-46
2023/10/29 01:25:19;;;;;;;2.37;0.80;;;13.30;92.00;;;;;;5026851;28;20515;-47
2023/10/29 01:27:46;;;;;;;1.60;1.30;;;13.30;91.80;;;;;;5027735;28;20506;-46
2023/10/29 01:30:17;;;;;;;1.50;1.00;;;13.30;91.90;;;;;;5010350;28;20446;-46
2023/10/29 01:32:45;;;;;;;1.50;0.90;;;13.30;92.00;;;;;;5009436;28;20462;-46
2023/10/29 01:35:13;;;;;;;1.67;0.70;;;13.30;92.00;;;;;;5009863;28;20455;-46
2023/10/29 01:37:41;;;;;;;1.50;0.70;;;13.30;92.00;;;;;;5008020;28;20533;-46
2023/10/29 01:40:10;;;;;;;1.93;0.80;;;13.30;91.90;;;;;;5009579;28;20721;-45
2023/10/29 01:42:38;;;;;;;1.70;1.00;;;13.30;92.00;;;;;;5009754;28;20466;-46
2023/10/29 01:45:06;;;;;;;2.13;0.70;;;13.30;91.90;;;;;;5027380;28;20967;-46
2023/10/29 01:47:36;;;;;;;1.20;0.60;;;13.30;91.80;;;;;;5025294;28;20969;-46
2023/10/29 01:50:06;;;;;;;1.57;0.80;;;13.30;91.80;;;;;;5026920;28;20471;-46
2023/10/29 01:52:34;;;;;;;1.73;0.93;;;13.30;91.80;;;;;;5025985;28;20459;-47
2023/10/29 01:55:02;;;;;;;1.90;0.80;;;13.30;91.90;;;;;;5026257;28;20480;-46
2023/10/29 01:57:30;;;;;;;1.60;0.83;;;13.30;92.00;;;;;;5009117;28;21009;-46
2023/10/29 01:59:59;;;;;;;2.50;0.80;;;13.30;92.30;;;;;;5006739;28;20540;-46
2023/10/29 02:02:27;;;;;;;1.77;0.90;;;13.30;92.20;;;;;;5005956;28;20552;-45
2023/10/29 02:04:57;;;;;;;1.30;0.70;;;13.30;92.10;;;;;;5011821;28;20871;-45
2023/10/29 02:07:25;;;;;;;1.60;0.83;;;13.30;92.20;;;;;;5031172;28;20497;-46
2023/10/29 02:09:53;;;;;;;1.73;0.90;;;13.30;92.10;;;;;;5010462;28;20472;-46
2023/10/29 02:12:21;;;;;;;1.20;0.60;;;13.30;92.30;;;;;;5013332;28;20915;-46
2023/10/29 02:14:50;;;;;;;1.67;0.80;;;13.30;92.30;;;;;;5010151;28;20903;-46
2023/10/29 02:17:18;;;;;;;3.13;0.70;;;13.30;92.10;;;;;;5031418;28;20458;-46
2023/10/29 02:19:46;;;;;;;1.20;0.60;;;13.30;92.20;;;;;;5031380;28;20439;-46
2023/10/29 02:22:16;;;;;;;1.50;0.70;;;13.30;92.70;;;;;;5029886;28;20499;-45
2023/10/29 02:24:44;;;;;;;1.33;0.73;;;13.30;92.30;;;;;;5009864;28;20484;-46
2023/10/29 02:27:13;;;;;;;2.10;0.73;;;13.30;92.30;;;;;;5012633;28;20910;-46
2023/10/29 02:29:41;;;;;;;2.67;0.80;;;13.30;92.20;;;;;;5030745;28;20497;-46
2023/10/29 02:32:10;;;;;;;1.97;1.40;;;13.30;92.30;;;;;;5010250;28;20985;-46
2023/10/29 02:34:38;;;;;;;1.40;0.70;;;13.30;92.30;;;;;;5031172;28;20467;-45
2023/10/29 02:37:06;;;;;;;1.40;0.80;;;13.30;92.80;;;;;;5030116;28;20996;-46
2023/10/29 02:39:35;;;;;;;1.03;0.57;;;13.30;92.40;;;;;;5027387;28;20446;-46
2023/10/29 02:42:04;;;;;;;1.77;0.90;;;13.30;92.40;;;;;;5026997;28;20458;-45
2023/10/29 02:44:32;;;;;;;1.30;0.70;;;13.30;92.40;;;;;;5030624;28;20427;-46
2023/10/29 02:47:00;;;;;;;1.60;0.90;;;13.30;92.20;;;;;;5010817;28;21022;-46
2023/10/29 02:49:29;;;;;;;2.13;0.83;;;13.30;92.30;;;;;;5027313;28;20573;-46
2023/10/29 02:51:57;;;;;;;2.00;0.87;;;13.30;92.40;;;;;;5012402;28;20935;-46
2023/10/29 02:54:25;;;;;;;2.80;0.97;;;13.30;92.40;;;;;;5027674;28;20448;-46
2023/10/29 02:56:55;;;;;;;1.63;0.70;;;13.30;92.40;;;;;;5012117;28;20462;-50
2023/10/29 02:59:23;;;;;;;1.30;0.83;;;13.30;92.20;;;;;;5025802;28;20848;-46
2023/10/29 03:01:51;;;;;;;3.37;0.87;;;13.30;92.30;;;;;;5009571;28;20974;-46
2023/10/29 03:04:19;;;;;;;1.30;0.90;;;13.30;92.30;;;;;;5012495;28;20445;-46
2023/10/29 03:06:47;;;;;;;1.77;0.90;;;13.30;92.20;;;;;;5012198;28;20668;-45
2023/10/29 03:09:15;;;;;;;1.57;0.70;;;13.30;92.10;;;;;;5008259;28;20552;-46
2023/10/29 03:11:43;;;;;;;2.00;0.63;;;13.30;92.20;;;;;;5012469;28;20425;-46
2023/10/29 03:14:13;;;;;;;1.80;0.60;;;13.30;92.20;;;;;;5029815;28;20438;-46
2023/10/29 03:16:41;;;;;;;1.73;0.70;;;13.30;92.00;;;;;;5011413;28;20931;-46
2023/10/29 03:19:09;;;;;;;2.07;0.80;;;13.30;92.10;;;;;;5028549;28;20443;-46
2023/10/29 03:21:37;;;;;;;1.30;0.77;;;13.30;92.10;;;;;;5012202;28;20940;-46
2023/10/29 03:24:06;;;;;;;1.23;0.70;;;13.30;92.10;;;;;;5008754;28;20530;-46
2023/10/29 03:26:34;;;;;;;1.40;0.60;;;13.30;92.00;;;;;;5012744;28;20944;-46
2023/10/29 03:29:03;;;;;;;1.20;0.60;;;13.30;92.00;;;;;;5011264;28;20654;-47
2023/10/29 03:31:32;;;;;;;1.20;0.63;;;13.30;92.00;;;;;;5025832;28;20930;-46
2023/10/29 03:34:00;;;;;;;1.17;0.60;;;13.30;92.00;;;;;;5027411;28;20476;-45
2023/10/29 03:36:28;;;;;;;1.07;0.63;;;13.30;92.20;;;;;;5030559;28;20512;-45
2023/10/29 03:38:56;;;;;;;1.57;0.63;;;13.30;92.10;;;;;;5008142;28;20488;-45
2023/10/29 03:41:24;;;;;;;1.47;0.77;;;13.30;92.10;;;;;;5029798;28;20451;-46
2023/10/29 03:43:52;;;;;;;1.10;0.60;;;13.30;91.90;;;;;;5030381;28;20468;-46
2023/10/29 03:46:21;;;;;;;1.50;0.60;;;13.30;92.00;;;;;;5025205;28;20491;-46
2023/10/29 03:48:51;;;;;;;1.03;0.50;;;13.30;91.90;;;;;;5028429;28;20884;-45
2023/10/29 03:51:19;;;;;;;1.67;0.80;;;13.30;92.00;;;;;;5028544;28;20951;-45
2023/10/29 03:53:47;;;;;;;1.23;0.70;;;13.30;92.50;;;;;;5026051;28;20504;-45
2023/10/29 03:56:16;;;;;;;1.67;0.57;;;13.30;91.90;;;;;;5029834;28;20517;-46
2023/10/29 03:58:43;;;;;;;1.57;0.60;;;13.30;91.90;;;;;;5028240;28;20514;-45
2023/10/29 04:01:13;;;;;;;1.20;0.50;;;13.30;92.00;;;;;;5029805;28;20852;-45
2023/10/29 04:03:43;;;;;;;1.50;0.80;;;13.30;91.90;;;;;;5006149;28;20880;-45
2023/10/29 04:06:13;;;;;;;1.20;0.63;;;13.30;91.90;;;;;;5029168;28;20448;-45
2023/10/29 04:08:41;;;;;;;1.23;0.60;;;13.30;91.90;;;;;;5026909;28;20601;-45
2023/10/29 04:11:10;;;;;;;2.20;1.03;;;13.30;91.90;;;;;;5010952;28;20463;-46
2023/10/29 04:13:39;;;;;;;1.90;0.60;;;13.30;91.90;;;;;;5029114;28;20600;-45
2023/10/29 04:16:07;;;;;;;1.00;0.50;;;13.30;91.90;;;;;;5028133;28;20509;-45
2023/10/29 04:18:35;;;;;;;1.57;0.60;;;13.40;91.90;;;;;;5027676;28;20476;-45
2023/10/29 04:21:06;;;;;;;1.43;0.80;;;13.30;91.90;;;;;;5028993;28;20925;-46
2023/10/29 04:23:36;;;;;;;1.00;0.60;;;13.30;92.10;;;;;;5027587;28;20565;-45
2023/10/29 04:26:04;;;;;;;1.77;0.70;;;13.30;91.90;;;;;;5028121;28;20538;-46
2023/10/29 04:28:32;;;;;;;1.93;0.50;;;13.30;91.80;;;;;;5027379;28;20527;-46
2023/10/29 04:31:00;;;;;;;1.07;0.60;;;13.30;91.80;;;;;;5026900;28;20507;-47
2023/10/29 04:33:29;;;;;;;1.50;0.53;;;13.30;91.80;;;;;;5028191;28;20586;-46
2023/10/29 04:35:57;;;;;;;2.37;0.67;;;13.40;91.90;;;;;;5029230;28;20452;-46
2023/10/29 04:38:25;;;;;;;1.30;0.70;;;13.30;91.80;;;;;;5029565;28;20476;-46
2023/10/29 04:40:54;;;;;;;2.50;1.03;;;13.30;91.80;;;;;;5028159;28;20845;-46
2023/10/29 04:43:22;;;;;;;2.17;0.90;;;13.30;91.80;;;;;;5028074;28;20551;-46
2023/10/29 04:45:50;;;;;;;1.10;0.80;;;13.30;91.80;;;;;;5026397;28;20523;-46
2023/10/29 04:48:19;;;;;;;1.00;0.50;;;13.30;91.80;;;;;;5026758;28;20517;-46
2023/10/29 04:50:48;;;;;;;2.40;0.50;;;13.30;91.70;;;;;;5027607;28;20543;-46
2023/10/29 04:53:16;;;;;;;1.60;0.80;;;13.30;91.60;;;;;;5026119;28;20477;-46
2023/10/29 04:55:44;;;;;;;1.30;0.60;;;13.30;91.60;;;;;;5028656;28;20517;-47
2023/10/29 04:58:14;;;;;;;1.67;0.67;;;13.40;91.70;;;;;;5026102;28;21844;-44
2023/10/29 05:00:42;;;;;;;2.57;0.67;;;13.30;91.70;;;;;;5024603;28;20462;-46
2023/10/29 05:03:10;;;;;;;1.00;0.70;;;13.30;91.60;;;;;;5024547;28;20551;-47
2023/10/29 05:05:38;;;;;;;1.30;0.70;;;13.40;91.70;;;;;;5027058;28;20852;-46
2023/10/29 05:08:06;;;;;;;2.70;0.60;;;13.30;91.80;;;;;;5025043;28;20562;-45
2023/10/29 05:10:34;;;;;;;2.93;0.93;;;13.30;91.70;;;;;;5027706;28;20586;-46
2023/10/29 05:13:02;;;;;;;2.50;0.70;;;13.40;91.60;;;;;;5026994;28;20525;-45
2023/10/29 05:15:32;;;;;;;1.07;0.60;;;13.30;91.50;;;;;;5026852;28;21016;-46
2023/10/29 05:18:00;;;;;;;1.10;0.50;;;13.40;91.70;;;;;;5025892;28;20465;-46
2023/10/29 05:20:28;;;;;;;1.33;0.90;;;13.30;91.70;;;;;;5027251;28;20441;-46
2023/10/29 05:22:57;;;;;;;2.13;0.90;;;13.30;91.70;;;;;;5026610;28;21228;-46
2023/10/29 05:25:25;;;;;;;1.43;0.50;;;13.40;91.70;;;;;;5027643;28;21030;-46
2023/10/29 05:27:54;;;;;;;1.30;0.60;;;13.40;91.70;;;;;;5027032;28;20814;-45
2023/10/29 05:30:23;;;;;;;1.30;0.70;;;13.40;91.70;;;;;;5027441;28;20458;-46
2023/10/29 05:32:52;;;;;;;2.30;0.60;;;13.40;91.60;;;;;;5025692;28;20461;-47
2023/10/29 05:35:21;;;;;;;1.20;0.70;;;13.40;91.70;;;;;;5026995;28;21006;-46
2023/10/29 05:37:49;;;;;;;4.30;0.93;;;13.40;91.60;;;;;;5025205;28;20756;-46
2023/10/29 05:40:17;;;;;;;1.20;0.60;;;13.30;91.70;;;;;;5027485;28;20427;-45
2023/10/29 05:42:45;;;;;;;1.10;0.50;;;13.40;91.60;;;;;;5027669;28;20469;-45
2023/10/29 05:45:13;;;;;;;1.40;0.80;;;13.40;91.60;;;;;;5028371;28;20463;-46
2023/10/29 05:47:41;;;;;;;1.00;0.70;;;13.40;91.40;;;;;;5024771;28;20477;-46
2023/10/29 05:50:11;;;;;;;2.00;0.80;;;13.40;91.50;;;;;;5026970;28;20994;-46
2023/10/29 05:52:39;;;;;;;1.57;0.50;;;13.40;91.60;;;;;;5025066;28;20924;-46
2023/10/29 05:55:07;;;;;;;1.20;0.57;;;13.40;91.70;;;;;;5026541;28;21031;-46
2023/10/29 05:57:35;;;;;;;4.03;1.13;;;13.40;91.60;;;;;;5026929;28;20501;-46
2023/10/29 06:00:04;;;;;;;1.50;0.50;;;13.40;91.60;;;;;;5027169;28;20520;-46
2023/10/29 06:02:39;;;;;;;1.00;0.63;;;13.30;91.60;;;;;;5024497;28;20521;-46
2023/10/29 06:05:08;;;;;;;1.53;0.60;;;13.40;91.50;;;;;;5026349;28;20466;-46
2023/10/29 06:07:41;;;;;;;1.13;0.60;;;13.30;91.50;;;;;;5025371;28;20514;-46
2023/10/29 06:10:11;;;;;;;1.73;0.50;;;13.40;91.60;;;;;;5025140;28;20448;-45
2023/10/29 06:12:39;;;;;;;1.37;0.60;;;13.40;91.60;;;;;;5026052;28;20902;-46
2023/10/29 06:15:10;;;;;;;1.83;0.40;;;13.40;91.50;;;;;;5028848;28;20516;-45
2023/10/29 06:17:38;;;;;;;1.30;1.00;;;13.40;91.40;;;;;;5006920;28;20494;-45
2023/10/29 06:20:08;;;;;;;1.07;0.60;;;13.30;91.50;;;;;;5025562;28;20803;-46
2023/10/29 06:22:38;;;;;;;2.50;0.70;;;13.30;91.50;;;;;;5024597;28;20872;-46
2023/10/29 06:25:09;;;;;;;2.07;0.80;;;13.40;91.50;;;;;;5027207;28;20532;-46
2023/10/29 06:27:37;;;;;;;1.43;0.50;;;13.30;91.40;;;;;;5026575;28;20467;-46
2023/10/29 06:30:07;;;;;;;1.33;0.57;;;13.40;91.50;;;;;;5024139;28;20441;-47
2023/10/29 06:32:35;;;;;;;1.50;0.57;;;13.30;91.90;;;;;;5024916;28;20478;-46
2023/10/29 06:35:04;;;;;;;1.40;0.77;;;13.30;91.40;;;;;;5026322;28;20502;-45
2023/10/29 06:37:32;;;;;;;1.63;0.50;;;13.40;91.50;;;;;;5022689;28;20525;-47
2023/10/29 06:40:03;;;;;;;2.57;0.77;;;13.30;91.50;;;;;;5025670;28;20437;-46
2023/10/29 06:42:31;;;;;;;3.20;0.70;;;13.30;91.40;;;;;;5024113;28;20544;-46
2023/10/29 06:44:59;;;;;;;2.37;1.10;;;13.30;91.40;;;;;;5027427;28;20862;-46
2023/10/29 06:47:27;;;;;;;0.90;0.50;;;13.30;91.40;;;;;;5025250;28;20858;-47
2023/10/29 06:49:56;;;;;;;1.30;0.70;;;13.40;91.40;;;;;;5026916;28;20447;-45
2023/10/29 06:52:24;;;;;;;1.97;0.53;;;13.30;91.40;;;;;;5028857;28;20518;-46
2023/10/29 06:54:53;;;;;;;1.17;0.60;;;13.40;91.30;;;;;;5028293;28;20494;-45
2023/10/29 06:57:22;;;;;;;1.10;0.60;;;13.40;91.30;;;;;;5029939;28;20467;-46
2023/10/29 06:59:51;;;;;;;4.17;0.60;;;13.30;91.30;;;;;;5030080;28;20477;-46
2023/10/29 07:02:19;;;;;;;3.13;0.60;;;13.40;91.30;;;;;;5027428;28;20460;-45
2023/10/29 07:04:47;;;;;;;1.63;0.70;;;13.40;91.30;;;;;;5030330;28;20465;-46
2023/10/29 07:07:15;;;;;;;2.03;0.50;;;13.30;91.30;;;;;;5029774;28;20460;-46
2023/10/29 07:09:43;;;;;;;1.17;0.60;;;13.40;91.30;;;;;;5027204;28;20481;-46
2023/10/29 07:12:11;;;;;;;1.00;0.53;;;13.40;91.20;;;;;;5028647;28;20523;-45
2023/10/29 07:14:41;;;;;;;2.27;0.63;;;13.40;91.30;;;;;;5030403;28;20488;-46
2023/10/29 07:17:09;;;;;;;1.80;0.70;;;13.40;91.20;;;;;;5027644;28;21051;-46
2023/10/29 07:19:38;;;;;;;1.73;0.80;;;13.40;91.20;;;;;;5030502;28;20427;-46
2023/10/29 07:22:06;;;;;;;1.80;0.47;;;13.30;91.20;;;;;;5028573;28;20530;-47
2023/10/29 07:24:35;;;;;;;2.80;0.70;;;13.30;91.20;;;;;;5027741;28;20790;-46
2023/10/29 07:27:03;;;;;;;2.53;0.67;;;13.40;91.20;;;;;;5030471;28;20519;-46
2023/10/29 07:29:31;;;;;;;2.80;0.50;;;13.40;91.20;;;;;;5027993;28;20420;-45
2023/10/29 07:32:01;;;;;;;1.13;0.63;;;13.40;91.10;;;;;;5027540;28;20477;-45
2023/10/29 07:34:29;;;;;;;1.70;0.70;;;13.40;91.00;;;;;;5029972;28;20435;-45
2023/10/29 07:36:57;;;;;;;2.03;0.97;;;13.30;91.00;;;;;;5028877;28;20772;-45
2023/10/29 07:39:25;;;;;;;2.13;0.70;;;13.40;91.00;;;;;;5026457;28;21111;-45
2023/10/29 07:41:53;;;;;;;2.30;0.50;;;13.40;90.90;;;;;;5028886;28;20928;-46
2023/10/29 07:44:23;;;;;;;1.67;0.50;;;13.40;90.90;;;;;;5029502;28;20802;-45
2023/10/29 07:46:52;;;;;;;1.23;0.67;;;13.40;91.00;;;;;;5030330;28;20440;-45
2023/10/29 07:49:21;;;;;;;1.70;0.80;;;13.40;91.00;;;;;;5024337;28;20456;-46
2023/10/29 07:51:49;;;;;;;1.30;0.70;;;13.40;91.40;;;;;;5029077;28;20543;-46
2023/10/29 07:54:17;;;;;;;1.97;0.60;;;13.40;90.90;;;;;;5025353;28;20454;-46
2023/10/29 07:56:45;;;;;;;1.87;0.90;;;13.40;90.80;;;;;;5030198;28;20852;-46
2023/10/29 07:59:13;;;;;;;2.73;1.00;;;13.40;90.90;;;;;;5028699;28;20461;-46
2023/10/29 08:01:43;;;;;;;1.93;0.67;;;13.40;90.80;;;;;;5028890;28;20501;-46
2023/10/29 08:04:11;;;;;;;1.83;0.90;;;13.40;90.80;;;;;;5028774;28;20543;-46
2023/10/29 08:06:40;;;;;;;1.30;0.50;;;13.40;90.80;;;;;;5028408;28;20457;-46
2023/10/29 08:09:08;;;;;;;1.90;0.70;;;13.40;90.90;;;;;;5027032;28;20484;-46
2023/10/29 08:11:38;;;;;;;1.43;0.50;;;13.40;90.80;;;;;;5029947;28;20463;-47
2023/10/29 08:14:06;;;;;;;1.10;0.53;;;13.40;90.80;;;;;;5029056;28;20469;-46
2023/10/29 08:16:34;;;;;;;3.10;0.87;;;13.40;90.90;;;;;;5027692;28;20489;-46
2023/10/29 08:19:02;;;;;;;1.47;0.80;;;13.40;90.90;;;;;;5028264;28;20508;-46
2023/10/29 08:21:30;;;;;;;1.97;0.70;;;13.40;90.90;;;;;;5028500;28;21016;-46
2023/10/29 08:23:59;;;;;;;2.67;0.60;;;13.40;90.80;;;;;;5026885;28;20896;-46
2023/10/29 08:26:29;;;;;;;1.20;0.53;;;13.40;90.80;;;;;;5028278;28;20469;-45
2023/10/29 08:28:57;;;;;;;1.93;0.67;;;13.40;90.80;;;;;;5027948;28;21021;-47
2023/10/29 08:31:25;;;;;;;2.03;0.98;;;13.40;90.80;;;;;;5026243;28;20524;-45
2023/10/29 08:33:54;;;;;;;1.53;0.60;;;13.50;90.90;;;;;;5027003;28;20216;-46
2023/10/29 08:36:24;;;;;;;1.20;0.90;;;13.50;90.90;;;;;;5028820;28;20514;-45
2023/10/29 08:38:52;;;;;;;1.40;0.43;;;13.40;90.80;;;;;;5023858;28;20502;-45
2023/10/29 08:41:21;;;;;;;4.60;0.90;;;13.40;90.80;;;;;;5026192;28;20449;-45
2023/10/29 08:43:49;;;;;;;1.47;0.70;;;13.40;90.70;;;;;;5028002;28;20461;-45
2023/10/29 08:46:17;;;;;;;1.93;0.87;;;13.40;90.70;;;;;;5028415;28;20514;-45
2023/10/29 08:48:45;;;;;;;5.00;0.90;;;13.40;90.70;;;;;;5024122;28;20482;-46
2023/10/29 08:51:14;;;;;;;1.80;0.70;;;13.40;90.70;;;;;;5025813;28;20486;-46
2023/10/29 08:53:42;;;;;;;3.00;0.70;;;13.40;90.70;;;;;;5026660;28;20474;-46
2023/10/29 08:56:11;;;;;;;1.40;0.57;;;13.40;90.70;;;;;;5028467;28;20459;-45
2023/10/29 08:58:40;;;;;;;2.70;0.70;;;13.40;90.70;;;;;;5027695;28;20896;-45
2023/10/29 09:01:08;;;;;;;1.60;0.90;;;13.40;90.70;;;;;;5023956;28;21064;-46
2023/10/29 09:03:37;;;;;;;1.37;0.60;;;13.40;90.70;;;;;;5027673;28;20515;-46
2023/10/29 09:06:06;;;;;;;1.80;0.70;;;13.40;90.70;;;;;;5028294;28;20958;-45
2023/10/29 09:08:34;;;;;;;2.77;0.83;;;13.40;90.60;;;;;;5024537;28;20484;-45
2023/10/29 09:11:03;;;;;;;2.27;0.70;;;13.40;90.60;;;;;;5027408;28;20511;-44
2023/10/29 09:13:31;;;;;;;2.43;0.80;;;13.40;90.60;;;;;;5026892;28;20523;-45
2023/10/29 09:16:00;;;;;;;2.60;1.10;;;13.40;90.70;;;;;;5027907;28;20451;-46
2023/10/29 09:18:28;;;;;;;6.90;2.53;;;13.40;90.60;;;;;;5024159;28;20565;-45
2023/10/29 09:20:57;;;;;;;1.53;0.60;;;13.40;90.60;;;;;;5027707;28;20445;-44
2023/10/29 09:23:27;;;;;;;3.30;0.70;;;13.40;90.50;;;;;;5025023;28;20894;-45
2023/10/29 09:25:55;;;;;;;1.00;0.50;;;13.40;90.60;;;;;;5027774;28;20517;-45
2023/10/29 09:28:23;;;;;;;1.40;0.50;;;13.40;90.70;;;;;;5026904;28;20489;-45
2023/10/29 09:30:52;;;;;;;1.40;0.60;;;13.50;90.60;;;;;;5027542;28;20433;-46
2023/10/29 09:33:22;;;;;;;1.13;0.47;;;13.40;90.60;;;;;;5022564;28;21051;-45
2023/10/29 09:35:50;;;;;;;1.63;0.60;;;13.40;90.50;;;;;;5028141;28;20483;-46
2023/10/29 09:38:20;;;;;;;1.63;0.70;;;13.40;90.50;;;;;;5024441;28;20491;-46
2023/10/29 09:40:51;;;;;;;2.40;0.70;;;13.40;90.40;;;;;;5027932;28;20500;-45
2023/10/29 09:43:30;;;;;;;1.60;0.93;;;13.40;90.50;;;;;;5025815;28;20476;-46
2023/10/29 09:46:02;;;;;;;4.60;1.43;;;13.40;90.50;;;;;;5027538;28;20464;-45
2023/10/29 09:48:32;;;;;;;1.90;0.80;;;13.40;90.50;;;;;;5023901;28;20543;-46
2023/10/29 09:51:01;;;;;;;1.60;0.60;;;13.40;90.50;;;;;;5026793;28;20539;-45
2023/10/29 09:53:31;;;;;;;1.90;0.93;;;13.40;90.50;;;;;;5024563;28;21080;-45
2023/10/29 09:56:00;;;;;;;2.27;0.83;;;13.40;90.50;;;;;;5027401;28;20452;-45
2023/10/29 09:58:28;;;;;;;1.20;0.57;;;13.40;90.50;;;;;;5024536;28;20522;-45
2023/10/29 10:00:58;;;;;;;1.60;0.70;;;13.40;90.50;;;;;;5024710;28;20483;-46
2023/10/29 10:03:27;;;;;;;3.50;0.70;;;13.40;90.50;;;;;;5022963;28;20494;-46
2023/10/29 10:05:57;;;;;;;2.07;1.03;;;13.50;90.50;;;;;;5025626;28;20481;-45
2023/10/29 10:08:26;;;;;;;1.67;0.67;;;13.40;90.40;;;;;;5023644;28;20516;-45
2023/10/29 10:10:55;;;;;;;1.30;0.63;;;13.50;90.40;;;;;;5026329;28;21112;-45
2023/10/29 10:13:36;;;;;;;1.40;0.77;;;13.40;90.40;;;;;;5026775;28;20485;-46
2023/10/29 10:16:10;;;;;;;2.33;0.80;;;13.40;90.40;;;;;;5026399;28;20466;-45
2023/10/29 10:18:52;;;;;;;1.27;0.50;;;13.40;90.40;;;;;;5022765;28;20509;-45
2023/10/29 10:21:23;;;;;;;1.67;0.67;;;13.40;90.40;;;;;;5027744;28;20447;-46
2023/10/29 10:23:52;;;;;;;1.70;0.57;;;13.50;90.40;;;;;;5024191;28;20475;-45
2023/10/29 10:26:28;;;;;;;1.67;0.67;;;13.40;90.40;;;;;;5027485;28;20454;-46
2023/10/29 10:28:58;;;;;;;2.40;1.20;;;13.50;90.50;;;;;;5030468;28;20462;-45
2023/10/29 10:31:27;;;;;;;2.60;0.70;;;13.40;90.40;;;;;;5025266;28;20444;-48
2023/10/29 10:34:10;;;;;;;2.53;0.70;;;13.40;90.40;;;;;;5029693;28;20449;-45
2023/10/29 10:36:40;;;;;;;3.53;1.17;;;13.60;90.40;;;;;;5030633;28;20210;-45
2023/10/29 10:39:08;;;;;;;1.93;0.70;;;13.60;90.40;;;;;;5026779;28;20930;-45
2023/10/29 10:41:41;;;;;;;3.03;0.60;;;13.50;90.20;;;;;;5028809;28;20860;-45
2023/10/29 10:44:12;;;;;;;1.60;0.80;;;13.50;90.40;;;;;;5029855;28;20484;-45
2023/10/29 10:46:47;;;;;;;1.30;0.57;;;13.50;90.30;;;;;;5031285;28;20481;-45
2023/10/29 10:49:15;;;;;;;1.37;0.70;;;13.50;90.30;;;;;;5028392;28;20569;-46
2023/10/29 10:51:46;;;;;;;2.03;0.70;;;13.50;90.30;;;;;;5031417;28;20488;-45
2023/10/29 10:54:18;;;;;;;1.57;0.60;;;13.50;90.30;;;;;;5002480;28;20476;-45
2023/10/29 10:56:47;;;;;;;2.03;0.83;;;13.50;90.30;;;;;;5027705;28;20479;-45
2023/10/29 10:59:16;;;;;;;2.30;0.93;;;13.50;90.80;;;;;;5022947;28;20519;-47
2023/10/29 11:01:44;;;;;;;2.50;1.07;;;13.50;90.70;;;;;;5027668;28;20449;-45
2023/10/29 11:04:13;;;;;;;1.77;0.90;;;13.50;90.60;;;;;;5028766;28;20466;-44
2023/10/29 11:06:42;;;;;;;3.40;1.50;;;13.60;90.60;;;;;;5021801;28;20481;-45
2023/10/29 11:09:13;;;;;;;2.60;0.60;;;13.60;91.00;;;;;;5018468;28;20475;-45
2023/10/29 11:11:47;;;;;;;2.50;0.70;;;13.60;91.50;;;;;;5028422;28;20470;-45
2023/10/29 11:14:17;;;;;;;1.77;0.93;;;13.60;91.10;;;;;;5022193;28;20488;-46
2023/10/29 11:16:47;;;;;;;1.43;0.70;;;13.60;90.90;;;;;;5026120;28;20443;-45
2023/10/29 11:19:42;;;;;;;1.33;0.50;;;13.60;90.80;;;;;;5024940;28;20478;-45
2023/10/29 11:22:15;;;;;;;1.77;0.53;;;13.60;90.80;;;;;;5010280;28;20457;-45
2023/10/29 11:24:45;;;;;;;1.50;0.83;;;13.60;90.80;;;;;;5024907;28;20749;-45
2023/10/29 11:27:35;;;;;;;2.47;0.90;;;13.60;90.90;;;;;;5026468;28;20452;-46
2023/10/29 11:30:15;;;;;;;3.43;1.47;;;13.50;90.80;;;;;;5029866;28;20435;-45
2023/10/29 11:32:44;;;;;;;2.57;0.70;;;13.60;90.90;;;;;;5024922;28;20469;-45
2023/10/29 11:35:20;;;;;;;2.23;0.97;;;13.60;90.90;;;;;;5029562;28;20475;-46
2023/10/29 11:37:49;;;;;;;1.57;0.60;;;13.60;91.10;;;;;;5026896;28;20473;-46
2023/10/29 11:40:33;;;;;;;3.83;0.90;;;13.60;91.20;;;;;;5026122;28;20446;-45
2023/10/29 11:43:22;;;;;;;1.73;0.80;;;13.60;91.00;;;;;;5029599;28;20463;-45
2023/10/29 11:46:00;;;;;;;5.13;0.70;;;13.60;91.00;;;;;;5028569;28;20460;-45
2023/10/29 11:48:30;;;;;;;1.77;0.50;;;13.60;90.90;;;;;;5028556;28;20501;-45
2023/10/29 11:51:21;;;;;;;1.73;0.80;;;13.60;90.90;;;;;;5029781;28;20920;-45
2023/10/29 11:53:49;;;;;;;1.33;0.57;;;13.60;90.80;;;;;;5024401;28;20530;-46
2023/10/29 11:56:20;;;;;;;1.70;0.67;;;13.60;90.80;;;;;;5029344;28;20459;-44
2023/10/29 11:59:05;;;;;;;3.57;0.70;;;13.60;90.80;;;;;;5028660;28;20457;-45
2023/10/29 12:01:35;;;;;;;1.47;0.77;;;13.60;91.30;;;;;;5029659;28;20526;-46
2023/10/29 12:04:05;;;;;;;1.70;0.60;;;13.60;90.70;;;;;;5027992;28;20465;-45
2023/10/29 12:06:41;;;;;;;1.60;0.93;;;13.60;90.60;;;;;;5029163;28;20484;-45
2023/10/29 12:09:21;;;;;;;1.13;0.67;;;13.60;90.80;;;;;;5025455;28;21240;-45
2023/10/29 12:11:52;;;;;;;1.60;0.90;;;13.60;90.70;;;;;;5027980;28;20487;-45
2023/10/29 12:14:38;;;;;;;1.00;0.50;;;13.60;90.80;;;;;;5026556;28;20479;-45
2023/10/29 12:17:06;;;;;;;1.30;0.57;;;13.60;90.70;;;;;;5023035;28;20529;-48
2023/10/29 12:19:36;;;;;;;2.27;1.17;;;13.60;92.50;;;;;;5028818;28;20849;-44
2023/10/29 12:22:14;;;;;;;1.27;0.63;;;13.70;91.90;;;;;;5007574;28;20449;-46
2023/10/29 12:24:43;;;;;;;1.40;0.77;;;13.70;91.40;;;;;;5017400;28;20507;-47
2023/10/29 12:27:13;;;;;;;2.50;0.77;;;13.70;91.30;;;;;;5024195;28;21048;-47
2023/10/29 12:29:42;;;;;;;1.33;0.60;;;13.70;91.30;;;;;;5020801;28;20455;-47
2023/10/29 12:32:16;;;;;;;1.87;0.60;;;13.70;91.20;;;;;;5017124;28;20558;-47
2023/10/29 12:34:49;;;;;;;1.20;0.50;;;13.70;91.10;;;;;;5016481;28;20986;-47
2023/10/29 12:37:25;;;;;;;1.07;0.60;;;13.80;91.20;;;;;;5018948;28;20472;-47
2023/10/29 12:39:56;;;;;;;3.90;0.70;;;13.80;91.10;;;;;;5019418;28;20450;-45
2023/10/29 12:42:49;;;;;;;1.10;0.50;;;13.80;90.90;;;;;;5019571;28;20947;-45
2023/10/29 12:45:24;;;;;;;2.07;0.70;;;13.80;90.80;;;;;;5019496;28;20897;-45
2023/10/29 12:48:08;;;;;;;2.43;0.63;;;13.80;90.80;;;;;;5014924;28;20479;-45
2023/10/29 12:50:47;;;;;;;2.27;0.70;;;13.80;90.70;;;;;;5018013;28;20456;-46
2023/10/29 12:53:21;;;;;;;1.40;0.47;;;13.80;90.80;;;;;;5017616;28;20483;-46
2023/10/29 12:55:50;;;;;;;1.60;0.73;;;13.80;90.80;;;;;;5019375;28;20597;-46
2023/10/29 12:58:20;;;;;;;1.43;0.80;;;13.80;90.80;;;;;;5018260;28;20529;-46
2023/10/29 13:00:48;;;;;;;1.87;0.67;;;13.80;91.10;;;;;;5018733;28;20460;-45